sensor_id;sensor_type;location;lat;lon;timestamp;P1;durP1;ratioP1;P2;durP2;ratioP2
61483;SDS011;47349;55.640;37.692;2023-08-17T00:00:16;19.52;;;8.05;;
61483;SDS011;47349;55.640;37.692;2023-08-17T00:03:07;18.88;;;8.48;;
61483;SDS011;47349;55.640;37.692;2023-08-17T00:06:38;19.20;;;8.32;;
61483;SDS011;47349;55.640;37.692;2023-08-17T00:10:03;24.10;;;8.23;;
61483;SDS011;47349;55.640;37.692;2023-08-17T00:12:54;19.67;;;8.30;;
61483;SDS011;47349;55.640;37.692;2023-08-17T00:17:21;13.80;;;7.70;;
61483;SDS011;47349;55.640;37.692;2023-08-17T00:22:32;26.52;;;9.82;;
61483;SDS011;47349;55.640;37.692;2023-08-17T00:27:10;25.05;;;9.70;;
61483;SDS011;47349;55.640;37.692;2023-08-17T00:30:56;26.48;;;10.38;;
61483;SDS011;47349;55.640;37.692;2023-08-17T00:34:46;24.60;;;9.60;;
61483;SDS011;47349;55.640;37.692;2023-08-17T00:38:53;21.70;;;9.77;;
61483;SDS011;47349;55.640;37.692;2023-08-17T00:43:46;29.45;;;12.20;;
61483;SDS011;47349;55.640;37.692;2023-08-17T00:47:16;27.30;;;10.85;;
61483;SDS011;47349;55.640;37.692;2023-08-17T00:51:06;25.73;;;10.82;;
61483;SDS011;47349;55.640;37.692;2023-08-17T00:55:45;20.13;;;11.40;;
61483;SDS011;47349;55.640;37.692;2023-08-17T01:00:31;31.05;;;10.88;;
61483;SDS011;47349;55.640;37.692;2023-08-17T01:04:56;22.30;;;10.10;;
61483;SDS011;47349;55.640;37.692;2023-08-17T01:08:46;20.25;;;10.02;;
61483;SDS011;47349;55.640;37.692;2023-08-17T01:11:36;18.23;;;9.82;;
61483;SDS011;47349;55.640;37.692;2023-08-17T01:15:09;17.35;;;9.73;;
61483;SDS011;47349;55.640;37.692;2023-08-17T01:17:52;16.58;;;9.57;;
61483;SDS011;47349;55.640;37.692;2023-08-17T01:21:16;15.60;;;8.15;;
61483;SDS011;47349;55.640;37.692;2023-08-17T01:24:24;17.42;;;9.88;;
61483;SDS011;47349;55.640;37.692;2023-08-17T01:27:53;20.92;;;10.65;;
61483;SDS011;47349;55.640;37.692;2023-08-17T01:37:10;17.30;;;9.50;;
61483;SDS011;47349;55.640;37.692;2023-08-17T01:40:09;22.98;;;10.27;;
61483;SDS011;47349;55.640;37.692;2023-08-17T01:43:24;17.48;;;9.02;;
61483;SDS011;47349;55.640;37.692;2023-08-17T01:46:13;17.35;;;8.38;;
61483;SDS011;47349;55.640;37.692;2023-08-17T01:49:18;17.52;;;9.00;;
61483;SDS011;47349;55.640;37.692;2023-08-17T01:52:06;16.92;;;8.80;;
61483;SDS011;47349;55.640;37.692;2023-08-17T01:56:47;22.30;;;9.20;;
61483;SDS011;47349;55.640;37.692;2023-08-17T02:01:23;15.05;;;8.63;;
61483;SDS011;47349;55.640;37.692;2023-08-17T02:05:33;17.05;;;8.48;;
61483;SDS011;47349;55.640;37.692;2023-08-17T02:09:33;16.17;;;8.23;;
61483;SDS011;47349;55.640;37.692;2023-08-17T02:13:15;18.48;;;9.25;;
61483;SDS011;47349;55.640;37.692;2023-08-17T02:21:28;26.25;;;10.90;;
61483;SDS011;47349;55.640;37.692;2023-08-17T02:24:10;19.75;;;10.30;;
61483;SDS011;47349;55.640;37.692;2023-08-17T02:27:14;18.15;;;10.05;;
61483;SDS011;47349;55.640;37.692;2023-08-17T02:32:43;25.33;;;10.23;;
61483;SDS011;47349;55.640;37.692;2023-08-17T02:35:48;18.02;;;8.95;;
61483;SDS011;47349;55.640;37.692;2023-08-17T02:38:34;19.27;;;9.00;;
61483;SDS011;47349;55.640;37.692;2023-08-17T02:41:39;21.45;;;9.32;;
61483;SDS011;47349;55.640;37.692;2023-08-17T02:44:46;18.83;;;8.70;;
61483;SDS011;47349;55.640;37.692;2023-08-17T02:48:12;22.85;;;9.70;;
61483;SDS011;47349;55.640;37.692;2023-08-17T02:51:10;21.27;;;10.80;;
61483;SDS011;47349;55.640;37.692;2023-08-17T02:53:54;27.40;;;10.75;;
61483;SDS011;47349;55.640;37.692;2023-08-17T02:56:39;18.20;;;9.90;;
61483;SDS011;47349;55.640;37.692;2023-08-17T03:00:44;17.98;;;9.35;;
61483;SDS011;47349;55.640;37.692;2023-08-17T03:05:38;15.13;;;7.90;;
61483;SDS011;47349;55.640;37.692;2023-08-17T03:09:31;15.48;;;7.93;;
61483;SDS011;47349;55.640;37.692;2023-08-17T03:14:03;15.30;;;8.85;;
61483;SDS011;47349;55.640;37.692;2023-08-17T03:17:10;16.45;;;8.98;;
61483;SDS011;47349;55.640;37.692;2023-08-17T03:22:12;16.02;;;9.85;;
61483;SDS011;47349;55.640;37.692;2023-08-17T03:27:12;16.73;;;9.40;;
61483;SDS011;47349;55.640;37.692;2023-08-17T03:30:59;20.13;;;10.40;;
61483;SDS011;47349;55.640;37.692;2023-08-17T03:33:54;21.88;;;10.95;;
61483;SDS011;47349;55.640;37.692;2023-08-17T03:36:41;20.30;;;11.77;;
61483;SDS011;47349;55.640;37.692;2023-08-17T03:39:24;22.85;;;11.77;;
61483;SDS011;47349;55.640;37.692;2023-08-17T03:42:12;21.42;;;11.45;;
61483;SDS011;47349;55.640;37.692;2023-08-17T03:45:02;22.98;;;11.52;;
61483;SDS011;47349;55.640;37.692;2023-08-17T03:49:30;24.15;;;10.88;;
61483;SDS011;47349;55.640;37.692;2023-08-17T03:58:19;23.80;;;12.25;;
61483;SDS011;47349;55.640;37.692;2023-08-17T04:02:43;26.60;;;12.00;;
61483;SDS011;47349;55.640;37.692;2023-08-17T04:07:23;29.17;;;12.55;;
61483;SDS011;47349;55.640;37.692;2023-08-17T04:12:21;26.55;;;12.25;;
61483;SDS011;47349;55.640;37.692;2023-08-17T04:21:43;17.52;;;11.73;;
61483;SDS011;47349;55.640;37.692;2023-08-17T04:26:16;16.73;;;10.13;;
61483;SDS011;47349;55.640;37.692;2023-08-17T04:31:11;29.60;;;15.63;;
61483;SDS011;47349;55.640;37.692;2023-08-17T06:33:52;8.07;;;3.75;;
61483;SDS011;47349;55.640;37.692;2023-08-17T06:37:25;7.03;;;4.25;;
61483;SDS011;47349;55.640;37.692;2023-08-17T06:42:21;9.60;;;3.67;;
61483;SDS011;47349;55.640;37.692;2023-08-17T06:46:38;9.43;;;3.70;;
61483;SDS011;47349;55.640;37.692;2023-08-17T06:51:42;8.15;;;3.95;;
61483;SDS011;47349;55.640;37.692;2023-08-17T07:34:53;4.72;;;2.65;;
61483;SDS011;47349;55.640;37.692;2023-08-17T07:39:32;10.98;;;3.60;;
61483;SDS011;47349;55.640;37.692;2023-08-17T07:43:43;8.30;;;3.42;;
61483;SDS011;47349;55.640;37.692;2023-08-17T07:47:51;4.95;;;3.28;;
61483;SDS011;47349;55.640;37.692;2023-08-17T07:52:25;6.63;;;3.03;;
61483;SDS011;47349;55.640;37.692;2023-08-17T07:55:10;8.10;;;3.30;;
61483;SDS011;47349;55.640;37.692;2023-08-17T08:00:21;4.93;;;3.17;;
61483;SDS011;47349;55.640;37.692;2023-08-17T08:08:16;4.70;;;2.55;;
61483;SDS011;47349;55.640;37.692;2023-08-17T08:38:56;4.10;;;3.10;;
61483;SDS011;47349;55.640;37.692;2023-08-17T08:41:44;4.53;;;3.03;;
61483;SDS011;47349;55.640;37.692;2023-08-17T08:44:25;4.25;;;3.08;;
61483;SDS011;47349;55.640;37.692;2023-08-17T08:46:54;4.90;;;3.08;;
61483;SDS011;47349;55.640;37.692;2023-08-17T08:49:24;6.93;;;3.03;;
61483;SDS011;47349;55.640;37.692;2023-08-17T08:51:58;4.88;;;3.20;;
61483;SDS011;47349;55.640;37.692;2023-08-17T08:54:31;5.18;;;2.70;;
61483;SDS011;47349;55.640;37.692;2023-08-17T08:57:06;4.97;;;3.05;;
61483;SDS011;47349;55.640;37.692;2023-08-17T08:59:41;7.45;;;3.28;;
61483;SDS011;47349;55.640;37.692;2023-08-17T09:02:15;3.42;;;3.00;;
61483;SDS011;47349;55.640;37.692;2023-08-17T09:04:44;6.68;;;2.90;;
61483;SDS011;47349;55.640;37.692;2023-08-17T09:07:27;5.13;;;3.22;;
61483;SDS011;47349;55.640;37.692;2023-08-17T09:10:05;5.60;;;3.40;;
61483;SDS011;47349;55.640;37.692;2023-08-17T09:12:34;3.63;;;2.85;;
61483;SDS011;47349;55.640;37.692;2023-08-17T09:18:16;6.10;;;3.20;;
61483;SDS011;47349;55.640;37.692;2023-08-17T09:21:24;4.72;;;3.13;;
61483;SDS011;47349;55.640;37.692;2023-08-17T09:24:24;6.40;;;3.20;;
61483;SDS011;47349;55.640;37.692;2023-08-17T09:27:34;5.85;;;3.08;;
61483;SDS011;47349;55.640;37.692;2023-08-17T09:30:20;3.83;;;3.40;;
61483;SDS011;47349;55.640;37.692;2023-08-17T09:33:03;4.47;;;3.10;;
61483;SDS011;47349;55.640;37.692;2023-08-17T09:36:22;5.70;;;3.90;;
61483;SDS011;47349;55.640;37.692;2023-08-17T09:39:36;4.30;;;3.22;;
61483;SDS011;47349;55.640;37.692;2023-08-17T09:43:05;6.00;;;3.35;;
61483;SDS011;47349;55.640;37.692;2023-08-17T09:45:52;7.65;;;3.50;;
61483;SDS011;47349;55.640;37.692;2023-08-17T09:48:57;8.40;;;3.40;;
61483;SDS011;47349;55.640;37.692;2023-08-17T09:51:43;4.45;;;3.10;;
61483;SDS011;47349;55.640;37.692;2023-08-17T09:54:31;6.53;;;3.03;;
61483;SDS011;47349;55.640;37.692;2023-08-17T09:58:16;7.18;;;3.47;;
61483;SDS011;47349;55.640;37.692;2023-08-17T10:01:27;4.15;;;3.22;;
61483;SDS011;47349;55.640;37.692;2023-08-17T10:04:10;4.53;;;3.38;;
61483;SDS011;47349;55.640;37.692;2023-08-17T10:07:00;7.35;;;3.30;;
61483;SDS011;47349;55.640;37.692;2023-08-17T10:09:39;4.28;;;3.15;;
61483;SDS011;47349;55.640;37.692;2023-08-17T10:12:23;5.28;;;3.28;;
61483;SDS011;47349;55.640;37.692;2023-08-17T10:15:10;4.53;;;3.40;;
61483;SDS011;47349;55.640;37.692;2023-08-17T10:18:00;6.07;;;3.08;;
61483;SDS011;47349;55.640;37.692;2023-08-17T10:24:18;8.57;;;3.25;;
61483;SDS011;47349;55.640;37.692;2023-08-17T10:27:02;7.20;;;3.35;;
61483;SDS011;47349;55.640;37.692;2023-08-17T10:29:45;4.75;;;3.45;;
61483;SDS011;47349;55.640;37.692;2023-08-17T10:32:31;5.15;;;3.20;;
61483;SDS011;47349;55.640;37.692;2023-08-17T10:35:13;4.97;;;3.30;;
61483;SDS011;47349;55.640;37.692;2023-08-17T10:37:57;7.65;;;3.50;;
61483;SDS011;47349;55.640;37.692;2023-08-17T10:41:20;7.93;;;3.50;;
61483;SDS011;47349;55.640;37.692;2023-08-17T10:43:53;5.00;;;3.28;;
61483;SDS011;47349;55.640;37.692;2023-08-17T10:46:37;3.42;;;3.13;;
61483;SDS011;47349;55.640;37.692;2023-08-17T10:49:38;5.25;;;2.88;;
61483;SDS011;47349;55.640;37.692;2023-08-17T10:53:03;5.50;;;3.22;;
61483;SDS011;47349;55.640;37.692;2023-08-17T11:10:35;4.88;;;3.35;;
61483;SDS011;47349;55.640;37.692;2023-08-17T12:12:36;12.52;;;3.85;;
61483;SDS011;47349;55.640;37.692;2023-08-17T12:15:05;7.35;;;2.42;;
61483;SDS011;47349;55.640;37.692;2023-08-17T12:17:33;12.55;;;2.70;;
61483;SDS011;47349;55.640;37.692;2023-08-17T12:20:00;4.93;;;2.55;;
61483;SDS011;47349;55.640;37.692;2023-08-17T12:52:37;5.70;;;2.75;;
61483;SDS011;47349;55.640;37.692;2023-08-17T12:55:19;5.88;;;3.30;;
61483;SDS011;47349;55.640;37.692;2023-08-17T13:02:03;6.10;;;2.47;;
61483;SDS011;47349;55.640;37.692;2023-08-17T13:04:57;4.18;;;2.97;;
61483;SDS011;47349;55.640;37.692;2023-08-17T13:08:59;3.35;;;2.50;;
61483;SDS011;47349;55.640;37.692;2023-08-17T13:17:23;7.57;;;2.58;;
61483;SDS011;47349;55.640;37.692;2023-08-17T13:20:39;3.42;;;2.50;;
61483;SDS011;47349;55.640;37.692;2023-08-17T13:23:26;4.50;;;2.97;;
61483;SDS011;47349;55.640;37.692;2023-08-17T13:26:11;3.08;;;2.45;;
61483;SDS011;47349;55.640;37.692;2023-08-17T13:29:27;4.25;;;2.70;;
61483;SDS011;47349;55.640;37.692;2023-08-17T13:32:16;5.57;;;2.75;;
61483;SDS011;47349;55.640;37.692;2023-08-17T13:35:09;8.75;;;2.65;;
61483;SDS011;47349;55.640;37.692;2023-08-17T13:38:03;5.53;;;2.67;;
61483;SDS011;47349;55.640;37.692;2023-08-17T13:40:47;5.00;;;2.63;;
61483;SDS011;47349;55.640;37.692;2023-08-17T13:43:39;5.78;;;2.58;;
61483;SDS011;47349;55.640;37.692;2023-08-17T13:46:21;5.10;;;2.70;;
61483;SDS011;47349;55.640;37.692;2023-08-17T13:49:05;5.43;;;2.55;;
61483;SDS011;47349;55.640;37.692;2023-08-17T13:55:00;5.28;;;2.78;;
61483;SDS011;47349;55.640;37.692;2023-08-17T13:57:52;5.47;;;2.45;;
61483;SDS011;47349;55.640;37.692;2023-08-17T14:01:05;6.88;;;3.13;;
61483;SDS011;47349;55.640;37.692;2023-08-17T14:03:52;5.25;;;2.88;;
61483;SDS011;47349;55.640;37.692;2023-08-17T14:06:50;5.97;;;2.55;;
61483;SDS011;47349;55.640;37.692;2023-08-17T14:19:53;4.20;;;2.67;;
61483;SDS011;47349;55.640;37.692;2023-08-17T14:31:27;5.15;;;2.67;;
61483;SDS011;47349;55.640;37.692;2023-08-17T14:35:00;3.65;;;2.55;;
61483;SDS011;47349;55.640;37.692;2023-08-17T14:40:05;3.72;;;2.58;;
61483;SDS011;47349;55.640;37.692;2023-08-17T14:44:43;3.90;;;2.35;;
61483;SDS011;47349;55.640;37.692;2023-08-17T14:52:12;4.43;;;2.50;;
61483;SDS011;47349;55.640;37.692;2023-08-17T14:55:45;10.80;;;2.78;;
61483;SDS011;47349;55.640;37.692;2023-08-17T14:58:59;4.50;;;2.70;;
61483;SDS011;47349;55.640;37.692;2023-08-17T15:02:13;7.65;;;3.28;;
61483;SDS011;47349;55.640;37.692;2023-08-17T15:05:33;3.42;;;2.50;;
61483;SDS011;47349;55.640;37.692;2023-08-17T15:09:25;6.00;;;3.10;;
61483;SDS011;47349;55.640;37.692;2023-08-17T15:13:39;6.38;;;3.00;;
61483;SDS011;47349;55.640;37.692;2023-08-17T17:35:42;14.98;;;7.82;;
61483;SDS011;47349;55.640;37.692;2023-08-17T17:39:42;11.88;;;6.63;;
61483;SDS011;47349;55.640;37.692;2023-08-17T17:43:17;16.23;;;6.95;;
61483;SDS011;47349;55.640;37.692;2023-08-17T17:52:05;20.30;;;7.78;;
61483;SDS011;47349;55.640;37.692;2023-08-17T17:55:33;18.45;;;7.70;;
61483;SDS011;47349;55.640;37.692;2023-08-17T17:59:35;19.60;;;7.15;;
61483;SDS011;47349;55.640;37.692;2023-08-17T18:03:09;13.02;;;8.10;;
61483;SDS011;47349;55.640;37.692;2023-08-17T18:06:47;13.90;;;6.38;;
61483;SDS011;47349;55.640;37.692;2023-08-17T18:11:43;10.80;;;6.53;;
61483;SDS011;47349;55.640;37.692;2023-08-17T18:15:46;10.30;;;6.40;;
61483;SDS011;47349;55.640;37.692;2023-08-17T18:19:07;11.02;;;6.40;;
61483;SDS011;47349;55.640;37.692;2023-08-17T18:27:39;15.10;;;7.68;;
61483;SDS011;47349;55.640;37.692;2023-08-17T18:30:46;15.60;;;8.00;;
61483;SDS011;47349;55.640;37.692;2023-08-17T18:37:10;19.20;;;9.18;;
61483;SDS011;47349;55.640;37.692;2023-08-17T18:41:07;15.75;;;8.65;;
61483;SDS011;47349;55.640;37.692;2023-08-17T18:44:18;21.98;;;8.00;;
61483;SDS011;47349;55.640;37.692;2023-08-17T18:48:06;38.33;;;8.90;;
61483;SDS011;47349;55.640;37.692;2023-08-17T18:52:03;20.40;;;11.32;;
61483;SDS011;47349;55.640;37.692;2023-08-17T18:55:53;16.30;;;8.63;;
61483;SDS011;47349;55.640;37.692;2023-08-17T18:59:43;11.73;;;7.32;;
61483;SDS011;47349;55.640;37.692;2023-08-17T19:04:18;18.70;;;7.57;;
61483;SDS011;47349;55.640;37.692;2023-08-17T19:07:49;12.55;;;6.45;;
61483;SDS011;47349;55.640;37.692;2023-08-17T19:11:45;15.23;;;8.95;;
61483;SDS011;47349;55.640;37.692;2023-08-17T19:14:32;22.73;;;10.33;;
61483;SDS011;47349;55.640;37.692;2023-08-17T19:18:31;23.15;;;8.63;;
61483;SDS011;47349;55.640;37.692;2023-08-17T19:21:51;15.48;;;7.70;;
61483;SDS011;47349;55.640;37.692;2023-08-17T19:26:21;16.30;;;7.50;;
61483;SDS011;47349;55.640;37.692;2023-08-17T19:30:08;18.33;;;8.98;;
61483;SDS011;47349;55.640;37.692;2023-08-17T19:33:57;26.17;;;9.77;;
61483;SDS011;47349;55.640;37.692;2023-08-17T20:11:57;16.05;;;9.00;;
61483;SDS011;47349;55.640;37.692;2023-08-17T20:14:40;16.42;;;7.80;;
61483;SDS011;47349;55.640;37.692;2023-08-17T20:17:26;16.60;;;9.05;;
61483;SDS011;47349;55.640;37.692;2023-08-17T20:20:17;18.10;;;8.55;;
61483;SDS011;47349;55.640;37.692;2023-08-17T20:23:03;16.45;;;8.60;;
61483;SDS011;47349;55.640;37.692;2023-08-17T20:26:13;19.58;;;9.57;;
61483;SDS011;47349;55.640;37.692;2023-08-17T20:29:25;32.53;;;11.32;;
61483;SDS011;47349;55.640;37.692;2023-08-17T20:32:14;16.88;;;9.13;;
61483;SDS011;47349;55.640;37.692;2023-08-17T20:35:30;29.75;;;9.77;;
61483;SDS011;47349;55.640;37.692;2023-08-17T20:39:17;16.58;;;8.30;;
61483;SDS011;47349;55.640;37.692;2023-08-17T20:42:48;22.13;;;9.18;;
61483;SDS011;47349;55.640;37.692;2023-08-17T20:45:42;21.80;;;9.45;;
61483;SDS011;47349;55.640;37.692;2023-08-17T20:52:11;21.95;;;9.05;;
61483;SDS011;47349;55.640;37.692;2023-08-17T20:55:34;22.23;;;9.18;;
61483;SDS011;47349;55.640;37.692;2023-08-17T20:59:07;22.88;;;9.13;;
61483;SDS011;47349;55.640;37.692;2023-08-17T21:02:24;20.88;;;8.30;;
61483;SDS011;47349;55.640;37.692;2023-08-17T21:06:30;15.98;;;8.90;;
61483;SDS011;47349;55.640;37.692;2023-08-17T21:10:19;19.55;;;9.10;;
61483;SDS011;47349;55.640;37.692;2023-08-17T21:17:47;17.90;;;9.13;;
61483;SDS011;47349;55.640;37.692;2023-08-17T21:24:59;26.00;;;9.35;;
61483;SDS011;47349;55.640;37.692;2023-08-17T21:28:46;18.58;;;8.82;;
61483;SDS011;47349;55.640;37.692;2023-08-17T21:31:55;32.42;;;17.73;;
61483;SDS011;47349;55.640;37.692;2023-08-17T21:35:09;24.52;;;10.18;;
61483;SDS011;47349;55.640;37.692;2023-08-17T21:38:16;26.55;;;9.85;;
61483;SDS011;47349;55.640;37.692;2023-08-17T21:41:29;17.02;;;8.60;;
61483;SDS011;47349;55.640;37.692;2023-08-17T21:44:56;20.30;;;8.65;;
61483;SDS011;47349;55.640;37.692;2023-08-17T21:48:21;16.70;;;9.55;;
61483;SDS011;47349;55.640;37.692;2023-08-17T21:51:36;15.68;;;8.93;;
61483;SDS011;47349;55.640;37.692;2023-08-17T21:55:17;28.38;;;10.93;;
61483;SDS011;47349;55.640;37.692;2023-08-17T21:58:21;17.13;;;9.13;;
61483;SDS011;47349;55.640;37.692;2023-08-17T22:01:46;23.25;;;10.35;;
61483;SDS011;47349;55.640;37.692;2023-08-17T22:04:40;24.42;;;10.30;;
61483;SDS011;47349;55.640;37.692;2023-08-17T22:07:50;21.55;;;9.80;;
61483;SDS011;47349;55.640;37.692;2023-08-17T22:10:57;21.48;;;10.40;;
61483;SDS011;47349;55.640;37.692;2023-08-17T22:13:43;26.00;;;11.00;;
61483;SDS011;47349;55.640;37.692;2023-08-17T22:16:25;23.52;;;13.48;;
61483;SDS011;47349;55.640;37.692;2023-08-17T22:19:32;20.92;;;11.98;;
61483;SDS011;47349;55.640;37.692;2023-08-17T22:22:52;29.70;;;11.13;;
61483;SDS011;47349;55.640;37.692;2023-08-17T22:25:36;16.50;;;9.43;;
61483;SDS011;47349;55.640;37.692;2023-08-17T22:28:23;22.42;;;13.18;;
61483;SDS011;47349;55.640;37.692;2023-08-17T22:31:13;19.52;;;11.43;;
61483;SDS011;47349;55.640;37.692;2023-08-17T22:33:58;24.52;;;11.57;;
61483;SDS011;47349;55.640;37.692;2023-08-17T22:36:41;20.40;;;11.13;;
61483;SDS011;47349;55.640;37.692;2023-08-17T22:39:25;21.05;;;10.90;;
61483;SDS011;47349;55.640;37.692;2023-08-17T22:42:07;18.63;;;9.73;;
61483;SDS011;47349;55.640;37.692;2023-08-17T22:44:56;14.43;;;9.02;;
61483;SDS011;47349;55.640;37.692;2023-08-17T22:47:48;24.95;;;10.00;;
61483;SDS011;47349;55.640;37.692;2023-08-17T22:50:32;12.82;;;8.35;;
61483;SDS011;47349;55.640;37.692;2023-08-17T22:53:16;11.38;;;7.90;;
61483;SDS011;47349;55.640;37.692;2023-08-17T22:56:04;13.73;;;8.77;;
61483;SDS011;47349;55.640;37.692;2023-08-17T22:58:51;17.50;;;7.95;;
61483;SDS011;47349;55.640;37.692;2023-08-17T23:01:39;15.95;;;8.48;;
61483;SDS011;47349;55.640;37.692;2023-08-17T23:04:27;16.77;;;8.90;;
61483;SDS011;47349;55.640;37.692;2023-08-17T23:07:31;14.40;;;7.97;;
61483;SDS011;47349;55.640;37.692;2023-08-17T23:10:17;15.93;;;8.13;;
61483;SDS011;47349;55.640;37.692;2023-08-17T23:13:24;13.13;;;8.63;;
61483;SDS011;47349;55.640;37.692;2023-08-17T23:19:31;17.17;;;9.35;;
61483;SDS011;47349;55.640;37.692;2023-08-17T23:25:25;15.88;;;10.20;;
61483;SDS011;47349;55.640;37.692;2023-08-17T23:28:33;14.00;;;9.63;;
61483;SDS011;47349;55.640;37.692;2023-08-17T23:32:02;17.45;;;10.10;;
61483;SDS011;47349;55.640;37.692;2023-08-17T23:34:56;14.77;;;9.48;;
61483;SDS011;47349;55.640;37.692;2023-08-17T23:38:21;17.55;;;9.80;;
61483;SDS011;47349;55.640;37.692;2023-08-17T23:42:03;14.35;;;9.52;;
61483;SDS011;47349;55.640;37.692;2023-08-17T23:45:34;13.45;;;9.32;;
61483;SDS011;47349;55.640;37.692;2023-08-17T23:49:24;15.00;;;9.80;;
61483;SDS011;47349;55.640;37.692;2023-08-17T23:52:21;17.95;;;10.07;;
61483;SDS011;47349;55.640;37.692;2023-08-17T23:56:01;12.68;;;8.18;;
61483;SDS011;47349;55.640;37.692;2023-08-17T23:59:18;16.05;;;9.88;;
